createdAt,value
2023-03-06T00:06:10.922Z,41.48
2023-03-06T00:09:15.048Z,41.77
2023-03-06T00:12:21.782Z,42.02
2023-03-06T00:15:27.980Z,41.35
2023-03-06T00:18:34.051Z,41.83
2023-03-06T00:21:45.701Z,41.63
2023-03-06T00:24:49.864Z,41.16
2023-03-06T00:27:54.159Z,41.49
2023-03-06T00:30:58.641Z,40.11
2023-03-06T00:34:02.456Z,41.35
2023-03-06T00:37:06.518Z,41.46
2023-03-06T00:43:30.860Z,41.69
2023-03-06T00:46:34.560Z,42.02
2023-03-06T00:49:38.970Z,41.40
2023-03-06T00:52:43.717Z,40.84
2023-03-06T00:55:50.647Z,41.19
2023-03-06T00:58:59.232Z,40.42
2023-03-06T01:05:27.598Z,40.61
2023-03-06T01:08:31.830Z,41.71
2023-03-06T01:11:35.630Z,40.63
2023-03-06T01:14:40.012Z,40.58
2023-03-06T01:17:45.209Z,41.00
2023-03-06T01:24:26.069Z,40.86
2023-03-06T01:27:30.491Z,39.57
2023-03-06T01:33:56.569Z,40.06
2023-03-06T01:37:01.826Z,41.55
2023-03-06T01:40:05.725Z,41.39
2023-03-06T01:43:10.410Z,40.23
2023-03-06T01:46:14.516Z,40.69
2023-03-06T01:49:18.714Z,39.82
2023-03-06T01:52:27.008Z,39.82
2023-03-06T01:55:34.545Z,39.17
2023-03-06T02:02:04.003Z,39.62
2023-03-06T02:05:15.760Z,39.83
2023-03-06T02:08:20.937Z,40.05
2023-03-06T02:11:33.216Z,40.59
2023-03-06T02:14:37.491Z,40.55
2023-03-06T02:17:50.759Z,41.38
2023-03-06T02:20:56.389Z,40.69
2023-03-06T02:24:00.419Z,40.72
2023-03-06T02:27:11.898Z,41.30
2023-03-06T02:30:16.135Z,42.24
2023-03-06T02:33:20.293Z,42.61
2023-03-06T02:36:24.552Z,42.16
2023-03-06T02:39:40.426Z,41.86
2023-03-06T02:42:44.791Z,41.38
2023-03-06T02:45:49.664Z,41.44
2023-03-06T02:48:55.558Z,41.02
2023-03-06T02:52:01.161Z,41.29
2023-03-06T02:55:05.414Z,40.69
2023-03-06T02:58:10.741Z,40.56
2023-03-06T03:01:16.305Z,41.41
2023-03-06T03:04:24.132Z,40.43
2023-03-06T03:07:28.245Z,41.11
2023-03-06T03:10:32.342Z,41.35
2023-03-06T03:13:40.030Z,41.00
2023-03-06T03:16:44.357Z,40.58
2023-03-06T03:19:49.620Z,40.73
2023-03-06T03:23:02.510Z,39.97
2023-03-06T03:26:07.985Z,40.98
2023-03-06T03:29:14.542Z,40.01
2023-03-06T03:32:31.782Z,40.17
2023-03-06T03:35:39.555Z,40.26
2023-03-06T03:39:08.560Z,40.32
2023-03-06T03:42:14.491Z,40.90
2023-03-06T03:45:20.454Z,40.51
2023-03-06T03:51:40.894Z,40.04
2023-03-06T03:54:46.562Z,39.41
2023-03-06T03:57:52.276Z,40.35
2023-03-06T04:04:08.907Z,40.71
2023-03-06T04:10:51.238Z,38.71
2023-03-06T04:13:59.974Z,38.98
2023-03-06T04:17:05.320Z,39.58
2023-03-06T04:20:09.353Z,40.52
2023-03-06T04:26:37.465Z,39.83
2023-03-06T04:29:41.767Z,39.25
2023-03-06T04:36:09.860Z,40.72
2023-03-06T04:39:14.468Z,39.79
2023-03-06T04:42:21.388Z,38.77
2023-03-06T04:45:26.065Z,40.17
2023-03-06T04:48:29.988Z,39.37
2023-03-06T04:51:36.874Z,38.68
2023-03-06T04:54:46.473Z,40.29
2023-03-06T04:57:50.811Z,41.01
2023-03-06T05:00:55.266Z,41.94
2023-03-06T05:04:06.733Z,42.14
2023-03-06T05:07:12.819Z,42.20
2023-03-06T05:10:19.521Z,42.48
2023-03-06T05:13:23.880Z,42.30
2023-03-06T05:16:28.081Z,42.31
2023-03-06T05:19:37.450Z,42.21
2023-03-06T05:26:09.932Z,42.10
2023-03-06T05:29:14.651Z,42.78
2023-03-06T05:35:42.921Z,43.36
2023-03-06T05:38:51.362Z,42.41
2023-03-06T05:41:56.177Z,42.25
2023-03-06T05:48:48.937Z,44.05
2023-03-06T05:51:54.785Z,42.61
2023-03-06T05:55:02.494Z,42.66
2023-03-06T05:58:06.813Z,42.04
2023-03-06T06:01:10.966Z,42.25
2023-03-06T06:04:14.860Z,42.22
2023-03-06T06:07:18.718Z,43.36
2023-03-06T06:10:22.673Z,43.17
2023-03-06T06:13:34.510Z,41.76
2023-03-06T06:16:38.824Z,41.08
2023-03-06T06:19:42.770Z,41.34
2023-03-06T06:22:46.946Z,40.47
2023-03-06T06:25:51.004Z,40.87
2023-03-06T06:28:55.321Z,41.83
2023-03-06T06:32:03.499Z,40.28
2023-03-06T06:35:18.962Z,41.26
2023-03-06T06:38:25.406Z,40.75
2023-03-06T06:41:53.671Z,39.56
2023-03-06T06:45:48.376Z,39.52
2023-03-06T06:54:42.393Z,38.46
2023-03-06T07:01:15.299Z,38.28
2023-03-06T07:07:41.958Z,37.45
2023-03-06T07:10:46.425Z,38.72
2023-03-06T07:13:50.734Z,38.20
2023-03-06T07:16:55.649Z,39.65
2023-03-06T07:20:01.766Z,39.77
2023-03-06T07:23:05.811Z,39.96
2023-03-06T07:26:10.702Z,39.98
2023-03-06T07:29:15.076Z,40.00
2023-03-06T07:32:20.935Z,39.87
2023-03-06T07:35:24.809Z,39.52
2023-03-06T07:38:28.818Z,39.72
2023-03-06T07:41:32.914Z,39.12
2023-03-06T07:44:37.127Z,37.70
2023-03-06T07:47:41.745Z,37.17
2023-03-06T07:50:45.769Z,38.35
2023-03-06T07:53:50.480Z,38.72
2023-03-06T07:56:55.788Z,37.81
2023-03-06T07:59:59.948Z,37.99
2023-03-06T08:03:05.643Z,37.89
2023-03-06T08:06:09.818Z,37.97
2023-03-06T08:09:13.550Z,38.26
2023-03-06T08:12:18.719Z,36.62
2023-03-06T08:15:23.024Z,37.35
2023-03-06T08:18:32.726Z,39.06
2023-03-06T08:21:38.234Z,41.19
2023-03-06T08:24:42.629Z,37.22
2023-03-06T08:27:46.594Z,37.15
2023-03-06T08:30:51.812Z,37.27
2023-03-06T08:33:56.044Z,37.77
2023-03-06T08:37:00.110Z,38.28
2023-03-06T08:40:06.308Z,38.76
2023-03-06T08:43:11.829Z,38.62
2023-03-06T08:46:17.566Z,38.96
2023-03-06T08:49:21.379Z,38.31
2023-03-06T08:52:25.308Z,38.25
2023-03-06T08:55:29.860Z,38.91
2023-03-06T08:58:34.036Z,39.35
2023-03-06T09:01:38.143Z,37.66
2023-03-06T09:04:42.235Z,37.64
2023-03-06T09:07:45.972Z,37.23
2023-03-06T09:10:50.582Z,38.01
2023-03-06T09:13:55.335Z,39.32
2023-03-06T09:16:59.118Z,45.49
2023-03-06T09:20:03.414Z,38.24
2023-03-06T09:23:07.715Z,38.23
2023-03-06T09:26:12.231Z,38.00
2023-03-06T09:29:16.410Z,37.70
2023-03-06T09:32:20.738Z,36.98
2023-03-06T09:35:24.612Z,36.40
2023-03-06T09:38:29.179Z,35.63
2023-03-06T09:41:33.494Z,36.45
2023-03-06T09:44:37.368Z,36.50
2023-03-06T09:47:41.262Z,36.76
2023-03-06T09:50:45.269Z,36.75
2023-03-06T09:53:49.776Z,36.66
2023-03-06T09:56:58.636Z,36.52
2023-03-06T10:00:04.495Z,36.99
2023-03-06T10:03:11.013Z,36.86
2023-03-06T10:06:15.211Z,38.11
2023-03-06T10:09:20.060Z,37.76
2023-03-06T10:12:25.202Z,38.10
2023-03-06T10:15:29.462Z,38.08
2023-03-06T10:18:34.525Z,36.64
2023-03-06T10:21:38.851Z,37.93
2023-03-06T10:24:42.803Z,38.11
2023-03-06T10:27:47.916Z,38.60
2023-03-06T10:30:51.980Z,38.10
2023-03-06T10:33:56.078Z,38.40
2023-03-06T10:37:00.140Z,38.48
2023-03-06T10:40:03.867Z,37.36
2023-03-06T10:43:11.785Z,37.02
2023-03-06T10:46:17.280Z,37.47
2023-03-06T10:49:22.486Z,37.06
2023-03-06T10:52:26.885Z,37.04
2023-03-06T10:55:31.206Z,37.45
2023-03-06T10:58:35.278Z,38.03
2023-03-06T11:01:39.202Z,38.19
2023-03-06T11:04:43.117Z,37.43
2023-03-06T11:07:47.396Z,38.47
2023-03-06T11:10:51.596Z,37.85
2023-03-06T11:13:55.686Z,38.67
2023-03-06T11:16:59.629Z,37.91
2023-03-06T11:20:04.025Z,38.47
2023-03-06T11:23:08.085Z,38.46
2023-03-06T11:26:12.182Z,38.60
2023-03-06T11:29:16.179Z,38.23
2023-03-06T11:32:19.968Z,38.32
2023-03-06T11:35:23.939Z,37.38
2023-03-06T11:38:28.351Z,38.11
2023-03-06T11:41:32.385Z,37.79
2023-03-06T11:44:36.229Z,37.36
2023-03-06T11:47:40.146Z,37.54
2023-03-06T11:50:44.372Z,36.23
2023-03-06T11:53:48.676Z,36.53
2023-03-06T11:56:52.955Z,36.55
2023-03-06T11:59:56.869Z,35.80
2023-03-06T12:03:00.712Z,36.75
2023-03-06T12:06:05.136Z,35.96
2023-03-06T12:09:09.133Z,36.48
2023-03-06T12:12:13.063Z,36.44
2023-03-06T12:15:16.943Z,36.22
2023-03-06T12:18:20.766Z,35.14
2023-03-06T12:21:24.891Z,35.23
2023-03-06T12:24:28.856Z,35.09
2023-03-06T12:27:32.628Z,35.46
2023-03-06T12:30:36.754Z,36.16
2023-03-06T12:33:40.983Z,35.79
2023-03-06T12:36:45.236Z,34.26
2023-03-06T12:39:51.433Z,35.91
2023-03-06T12:42:55.532Z,33.76
2023-03-06T12:45:59.441Z,34.22
2023-03-06T12:49:03.415Z,34.93
2023-03-06T12:52:07.374Z,35.28
2023-03-06T12:55:11.194Z,34.14
2023-03-06T12:58:15.272Z,34.35
2023-03-06T13:01:19.595Z,33.17
2023-03-06T13:04:23.675Z,33.86
2023-03-06T13:07:27.814Z,32.73
2023-03-06T13:10:31.682Z,33.96
2023-03-06T13:13:35.607Z,33.05
2023-03-06T13:16:39.758Z,33.64
2023-03-06T13:19:43.748Z,33.49
2023-03-06T13:22:51.261Z,32.58
2023-03-06T13:25:55.130Z,33.42
2023-03-06T13:28:58.966Z,33.26
2023-03-06T13:32:02.932Z,33.54
2023-03-06T13:35:07.455Z,34.21
2023-03-06T13:38:11.475Z,34.61
2023-03-06T13:41:15.399Z,34.16
2023-03-06T13:44:19.431Z,33.86
2023-03-06T13:47:23.463Z,34.46
2023-03-06T13:50:27.773Z,33.09
2023-03-06T13:53:32.835Z,32.69
2023-03-06T13:56:36.731Z,33.88
2023-03-06T13:59:40.677Z,34.63
2023-03-06T14:02:44.804Z,32.77
2023-03-06T14:05:48.825Z,32.16
2023-03-06T14:08:53.150Z,29.52
2023-03-06T14:11:57.082Z,29.91
2023-03-06T14:15:03.281Z,30.41
2023-03-06T14:18:07.154Z,33.22
2023-03-06T14:21:11.093Z,33.89
2023-03-06T14:24:15.111Z,33.66
2023-03-06T14:27:19.048Z,33.34
2023-03-06T14:30:25.281Z,34.80
2023-03-06T14:33:32.601Z,33.90
2023-03-06T14:36:36.405Z,34.76
2023-03-06T14:39:40.555Z,33.22
2023-03-06T14:42:44.685Z,34.74
2023-03-06T14:45:48.651Z,32.05
2023-03-06T14:48:52.922Z,32.63
2023-03-06T14:51:57.228Z,33.77
2023-03-06T14:55:01.424Z,32.44
2023-03-06T14:58:05.339Z,30.28
2023-03-06T15:01:09.311Z,28.81
2023-03-06T15:04:13.722Z,25.63
2023-03-06T15:07:17.748Z,23.25
2023-03-06T15:10:22.328Z,23.55
2023-03-06T15:13:26.168Z,25.13
2023-03-06T15:16:31.421Z,26.26
2023-03-06T15:19:35.787Z,27.30
2023-03-06T15:22:39.729Z,25.29
2023-03-06T15:25:43.710Z,22.39
2023-03-06T15:28:47.632Z,27.40
2023-03-06T15:31:52.674Z,29.43
2023-03-06T15:34:56.777Z,29.85
2023-03-06T15:38:00.891Z,28.77
2023-03-06T15:41:05.070Z,28.23
2023-03-06T15:44:08.921Z,25.29
2023-03-06T15:47:13.029Z,20.68
2023-03-06T15:50:19.713Z,20.59
2023-03-06T15:53:23.952Z,18.42
2023-03-06T15:56:28.160Z,17.35
2023-03-06T15:59:31.774Z,17.70
2023-03-06T16:02:35.946Z,16.40
2023-03-06T16:05:39.835Z,16.26
2023-03-06T16:08:43.764Z,15.58
2023-03-06T16:11:47.928Z,15.92
2023-03-06T16:14:53.354Z,15.11
2023-03-06T16:17:57.583Z,14.86
2023-03-06T16:21:02.521Z,14.84
2023-03-06T16:24:06.418Z,14.60
2023-03-06T16:27:10.625Z,20.03
2023-03-06T16:30:14.937Z,23.09
2023-03-06T16:33:18.870Z,19.12
2023-03-06T16:36:23.160Z,19.29
2023-03-06T16:39:27.429Z,18.68
2023-03-06T16:42:31.385Z,17.43
2023-03-06T16:45:35.689Z,17.64
2023-03-06T16:48:39.558Z,17.64
2023-03-06T16:51:44.131Z,16.64
2023-03-06T16:54:49.256Z,16.69
2023-03-06T16:57:53.612Z,16.55
2023-03-06T17:00:57.616Z,15.95
2023-03-06T17:04:01.677Z,14.63
2023-03-06T17:07:05.965Z,10.74
2023-03-06T17:10:09.822Z,9.99
2023-03-06T17:13:13.463Z,9.82
2023-03-06T17:16:17.324Z,10.18
2023-03-06T17:19:24.429Z,10.14
2023-03-06T17:22:28.176Z,10.11
2023-03-06T17:25:32.377Z,10.51
2023-03-06T17:28:36.299Z,10.48
2023-03-06T17:31:40.382Z,11.53
2023-03-06T17:34:44.359Z,10.75
2023-03-06T17:37:48.931Z,10.97
2023-03-06T17:40:52.820Z,10.52
2023-03-06T17:43:57.719Z,10.62
2023-03-06T17:47:01.822Z,10.64
2023-03-06T17:50:05.942Z,10.88
2023-03-06T17:53:10.121Z,10.41
2023-03-06T17:56:14.002Z,10.11
2023-03-06T17:59:17.861Z,10.12
2023-03-06T18:02:21.687Z,9.78
2023-03-06T18:05:25.863Z,10.37
2023-03-06T18:08:30.101Z,9.96
2023-03-06T18:11:38.438Z,10.54
2023-03-06T18:14:43.930Z,10.56
2023-03-06T18:17:47.797Z,10.09
2023-03-06T18:20:51.947Z,10.04
2023-03-06T18:23:56.196Z,10.45
2023-03-06T18:27:00.507Z,10.10
2023-03-06T18:30:04.783Z,9.57
2023-03-06T18:36:30.703Z,9.44
2023-03-06T18:39:34.478Z,9.95
2023-03-06T18:42:38.284Z,9.75
2023-03-06T18:45:42.565Z,9.55
2023-03-06T18:48:46.589Z,10.02
2023-03-06T18:51:51.073Z,10.18
2023-03-06T18:54:55.412Z,9.94
2023-03-06T18:57:59.709Z,10.48
2023-03-06T19:01:03.993Z,10.12
2023-03-06T19:04:07.840Z,9.97
2023-03-06T19:07:11.711Z,10.14
2023-03-06T19:10:16.144Z,10.65
2023-03-06T19:13:19.964Z,11.22
2023-03-06T19:16:24.203Z,11.62
2023-03-06T19:19:29.349Z,10.56
2023-03-06T19:22:33.141Z,11.26
2023-03-06T19:25:37.287Z,10.67
2023-03-06T19:28:41.655Z,10.89
2023-03-06T19:31:45.738Z,11.39
2023-03-06T19:34:51.070Z,11.15
2023-03-06T19:37:54.941Z,11.19
2023-03-06T19:40:58.886Z,11.46
2023-03-06T19:44:03.348Z,11.92
2023-03-06T19:47:07.191Z,11.96
2023-03-06T19:50:11.000Z,11.95
2023-03-06T19:53:15.453Z,12.56
2023-03-06T19:56:19.841Z,12.02
2023-03-06T19:59:23.782Z,12.28
2023-03-06T20:02:27.553Z,12.21
2023-03-06T20:05:33.253Z,12.49
2023-03-06T20:08:37.350Z,12.36
2023-03-06T20:15:04.012Z,12.17
2023-03-06T20:18:08.432Z,11.70
2023-03-06T20:21:12.410Z,12.73
2023-03-06T20:24:16.739Z,12.31
2023-03-06T20:27:20.871Z,12.81
2023-03-06T20:30:26.442Z,12.69
2023-03-06T20:33:33.615Z,12.44
2023-03-06T20:36:37.739Z,12.77
2023-03-06T20:39:41.815Z,12.65
2023-03-06T20:42:47.456Z,12.74
2023-03-06T20:45:51.431Z,12.77
2023-03-06T20:48:55.789Z,12.94
2023-03-06T20:52:00.101Z,13.47
2023-03-06T20:55:04.188Z,13.66
2023-03-06T20:58:08.279Z,13.62
2023-03-06T21:01:12.168Z,13.97
2023-03-06T21:04:16.496Z,14.12
2023-03-06T21:07:31.612Z,13.45
2023-03-06T21:10:37.842Z,13.81
2023-03-06T21:13:41.990Z,13.65
2023-03-06T21:16:45.916Z,13.73
2023-03-06T21:19:49.887Z,13.82
2023-03-06T21:22:53.663Z,13.70
2023-03-06T21:25:58.044Z,13.74
2023-03-06T21:29:02.076Z,13.60
2023-03-06T21:32:06.036Z,13.48
2023-03-06T21:35:10.125Z,13.49
2023-03-06T21:38:14.113Z,13.51
2023-03-06T21:41:18.476Z,13.59
2023-03-06T21:44:22.355Z,13.01
2023-03-06T21:47:26.505Z,13.74
2023-03-06T21:53:53.166Z,13.11
2023-03-06T21:56:57.607Z,13.24
2023-03-06T22:00:01.790Z,12.96
2023-03-06T22:03:06.036Z,13.07
2023-03-06T22:09:31.821Z,13.39
2023-03-06T22:12:35.961Z,13.45
2023-03-06T22:15:40.090Z,13.07
2023-03-06T22:18:44.126Z,13.09
2023-03-06T22:21:48.098Z,13.03
2023-03-06T22:24:51.976Z,13.21
2023-03-06T22:27:56.049Z,13.19
2023-03-06T22:31:00.117Z,13.81
2023-03-06T22:34:04.048Z,13.02
2023-03-06T22:37:07.772Z,13.71
2023-03-06T22:40:12.986Z,13.59
2023-03-06T22:43:17.004Z,12.74
2023-03-06T22:46:20.626Z,13.06
2023-03-06T22:49:24.646Z,13.73
2023-03-06T22:52:28.660Z,13.47
2023-03-06T22:55:32.476Z,13.34
2023-03-06T22:58:39.513Z,13.14
2023-03-06T23:01:43.669Z,12.93
2023-03-06T23:04:47.841Z,13.08
2023-03-06T23:07:51.632Z,12.86
2023-03-06T23:10:55.627Z,13.07
2023-03-06T23:13:59.961Z,12.89
2023-03-06T23:17:04.091Z,12.66
2023-03-06T23:20:07.981Z,12.79
2023-03-06T23:23:12.257Z,12.79
2023-03-06T23:26:16.175Z,12.62
2023-03-06T23:29:20.448Z,12.85
2023-03-06T23:32:24.408Z,12.38
2023-03-06T23:35:28.418Z,12.52
2023-03-06T23:38:32.547Z,12.12
2023-03-06T23:41:36.695Z,11.74
2023-03-06T23:44:41.001Z,12.64
2023-03-06T23:47:44.906Z,11.84
2023-03-06T23:50:50.662Z,12.50
2023-03-06T23:53:54.858Z,12.26
2023-03-06T23:56:58.797Z,12.39
